Time;durP1;ratioP1;P1;durP2;ratioP2;P2;SDS_P1;SDS_P2;PMS_P1;PMS_P2;Temp;Humidity;BMP_temperature;BMP_pressure;BME280_temperature;BME280_humidity;BME280_pressure;Samples;Min_cycle;Max_cycle;Signal;HPM_P1;HPM_P2
2023/09/09 00:00:54;;;;;;;;;;;;;;;20.66;82.44;101523.72;5024325;28;19909;-65
2023/09/09 00:03:20;;;;;;;;;;;;;;;20.65;82.60;101517.56;5024660;28;20079;-65
2023/09/09 00:05:45;;;;;;;;;;;;;;;20.62;82.34;101519.34;5025222;28;19932;-65
2023/09/09 00:08:11;;;;;;;;;;;;;;;20.59;82.66;101516.72;5016135;28;19925;-65
2023/09/09 00:10:36;;;;;;;;;;;;;;;20.53;82.53;101517.63;5022965;28;19914;-65
2023/09/09 00:13:03;;;;;;;;;;;;;;;20.48;83.00;101515.03;5025513;28;19969;-65
2023/09/09 00:15:29;;;;;;;;;;;;;;;20.40;82.62;101518.63;5024902;28;19910;-65
2023/09/09 00:17:55;;;;;;;;;;;;;;;20.29;82.88;101514.28;5023693;28;19953;-65
2023/09/09 00:20:29;;;;;;;;;;;;;;;20.27;83.50;101508.09;5020441;28;20225;-65
2023/09/09 00:22:54;;;;;;;;;;;;;;;20.24;83.49;101517.81;5020996;28;19921;-65
2023/09/09 00:25:19;;;;;;;;;;;;;;;20.23;83.69;101518.72;5024755;28;19949;-65
2023/09/09 00:27:44;;;;;;;;;;;;;;;20.17;83.66;101511.69;5024467;28;20112;-65
2023/09/09 00:30:10;;;;;;;;;;;;;;;20.15;83.88;101511.69;5022833;28;19909;-65
2023/09/09 00:32:35;;;;;;;;;;;;;;;20.19;84.02;101511.66;5022129;28;20202;-64
2023/09/09 00:35:00;;;;;;;;;;;;;;;20.22;84.33;101512.53;5024438;28;19921;-64
2023/09/09 00:37:25;;;;;;;;;;;;;;;20.17;84.26;101510.81;5022173;28;19936;-65
2023/09/09 00:39:50;;;;;;;;;;;;;;;20.13;84.28;101509.94;5018517;28;19953;-65
2023/09/09 00:42:15;;;;;;;;;;;;;;;20.02;84.27;101506.50;5023389;28;19949;-64
2023/09/09 00:44:41;;;;;;;;;;;;;;;19.97;84.58;101504.75;5033215;28;20165;-64
2023/09/09 00:47:06;;;;;;;;;;;;;;;19.89;84.83;101506.53;5023384;28;19913;-64
2023/09/09 00:49:32;;;;;;;;;;;;;;;19.89;85.01;101503.03;5022558;28;19921;-64
2023/09/09 00:51:57;;;;;;;;;;;;;;;19.89;84.99;101503.88;5024145;28;19937;-64
2023/09/09 00:54:22;;;;;;;;;;;;;;;19.90;84.80;101510.03;5024376;28;19933;-64
2023/09/09 00:56:50;;;;;;;;;;;;;;;19.90;84.82;101507.41;5022738;28;20139;-65
2023/09/09 00:59:15;;;;;;;;;;;;;;;19.91;84.44;101514.47;5019587;28;19939;-64
2023/09/09 01:01:40;;;;;;;;;;;;;;;19.91;84.65;101509.16;5024021;28;19913;-64
2023/09/09 01:04:06;;;;;;;;;;;;;;;19.87;84.07;101505.69;5024254;28;19956;-64
2023/09/09 01:06:32;;;;;;;;;;;;;;;19.87;84.10;101512.72;5023519;28;19936;-65
2023/09/09 01:09:04;;;;;;;;;;;;;;;19.88;84.27;101509.19;5023483;28;20013;-64
2023/09/09 01:11:29;;;;;;;;;;;;;;;19.92;83.97;101503.00;5022197;28;19964;-64
2023/09/09 01:13:55;;;;;;;;;;;;;;;19.93;83.81;101505.63;5019809;28;19917;-65
2023/09/09 01:16:20;;;;;;;;;;;;;;;19.94;83.84;101507.41;5021215;28;19930;-64
2023/09/09 01:18:46;;;;;;;;;;;;;;;19.91;83.94;101517.09;5023921;28;19984;-64
2023/09/09 01:21:11;;;;;;;;;;;;;;;19.80;84.28;101504.81;5023858;28;20243;-64
2023/09/09 01:23:37;;;;;;;;;;;;;;;19.75;84.23;101505.69;5023652;28;19920;-64
2023/09/09 01:26:02;;;;;;;;;;;;;;;19.70;84.27;101496.91;5023165;28;20226;-64
2023/09/09 01:28:28;;;;;;;;;;;;;;;19.66;84.13;101508.38;5024092;28;19909;-64
2023/09/09 01:30:53;;;;;;;;;;;;;;;19.61;84.39;101503.06;5023686;28;20093;-64
2023/09/09 01:33:18;;;;;;;;;;;;;;;19.53;84.52;101500.47;5023148;28;20750;-64
2023/09/09 01:35:44;;;;;;;;;;;;;;;19.51;84.55;101502.25;5019256;28;19956;-64
2023/09/09 01:38:09;;;;;;;;;;;;;;;19.49;84.80;101498.72;5023563;28;20060;-64
2023/09/09 01:40:34;;;;;;;;;;;;;;;19.51;84.76;101499.59;5023672;28;19980;-64
2023/09/09 01:42:59;;;;;;;;;;;;;;;19.48;84.96;101496.97;5022267;28;20066;-64
2023/09/09 01:45:25;;;;;;;;;;;;;;;19.43;84.68;101504.03;5023526;28;19909;-64
2023/09/09 01:47:50;;;;;;;;;;;;;;;19.38;84.88;101503.13;5012187;28;19917;-64
2023/09/09 01:50:15;;;;;;;;;;;;;;;19.33;85.15;101502.28;5023582;28;19909;-64
2023/09/09 01:52:40;;;;;;;;;;;;;;;19.27;84.97;101497.88;5023287;28;19933;-64
2023/09/09 01:55:06;;;;;;;;;;;;;;;19.22;85.29;101502.28;5022387;28;19992;-64
2023/09/09 01:57:31;;;;;;;;;;;;;;;19.19;85.45;101502.28;5015452;28;20005;-64
2023/09/09 01:59:57;;;;;;;;;;;;;;;19.19;85.78;101502.28;5005744;28;20060;-64
2023/09/09 02:02:22;;;;;;;;;;;;;;;19.18;85.73;101498.78;5023442;28;19909;-64
2023/09/09 02:04:47;;;;;;;;;;;;;;;19.19;85.21;101503.19;5022546;28;19914;-64
2023/09/09 02:07:12;;;;;;;;;;;;;;;19.16;85.36;101494.38;5022722;28;19957;-64
2023/09/09 02:09:38;;;;;;;;;;;;;;;19.16;85.40;101495.28;5023228;28;19988;-64
2023/09/09 02:12:03;;;;;;;;;;;;;;;19.14;85.62;101497.03;5019158;28;20526;-64
2023/09/09 02:14:29;;;;;;;;;;;;;;;19.14;85.77;101491.75;5012941;28;19929;-64
2023/09/09 02:16:54;;;;;;;;;;;;;;;19.14;85.62;101494.38;5023071;28;19917;-64
2023/09/09 02:19:19;;;;;;;;;;;;;;;19.14;85.75;101485.59;5023166;28;19910;-64
2023/09/09 02:21:45;;;;;;;;;;;;;;;19.14;85.69;101497.03;5023216;28;19909;-64
2023/09/09 02:24:10;;;;;;;;;;;;;;;19.14;85.60;101498.81;5023949;28;19921;-64
2023/09/09 02:26:35;;;;;;;;;;;;;;;19.10;85.68;101496.16;5021916;28;20048;-64
2023/09/09 02:29:00;;;;;;;;;;;;;;;19.05;85.76;101497.06;5026909;28;19916;-64
2023/09/09 02:31:25;;;;;;;;;;;;;;;18.99;85.53;101492.66;5026828;28;19932;-64
2023/09/09 02:33:51;;;;;;;;;;;;;;;18.94;85.68;101503.22;5026578;28;19972;-64
2023/09/09 02:36:16;;;;;;;;;;;;;;;18.89;85.71;101502.34;5026680;28;19910;-64
2023/09/09 02:38:41;;;;;;;;;;;;;;;18.85;86.07;101504.94;5026376;28;19985;-64
2023/09/09 02:41:06;;;;;;;;;;;;;;;18.83;86.10;101498.78;5026593;28;19914;-64
2023/09/09 02:43:32;;;;;;;;;;;;;;;18.83;86.09;101497.03;5031610;28;19952;-64
2023/09/09 02:45:57;;;;;;;;;;;;;;;18.83;86.29;101498.78;5031089;28;19913;-64
2023/09/09 02:48:22;;;;;;;;;;;;;;;18.80;86.12;101506.69;5026753;28;19910;-64
2023/09/09 02:50:47;;;;;;;;;;;;;;;18.79;86.35;101502.31;5002695;28;20195;-64
2023/09/09 02:53:12;;;;;;;;;;;;;;;18.75;86.36;101501.41;5026236;28;19960;-64
2023/09/09 02:55:38;;;;;;;;;;;;;;;18.69;86.24;101498.78;5026833;28;19972;-64
2023/09/09 02:58:03;;;;;;;;;;;;;;;18.63;86.43;101499.66;5008235;28;20155;-64
2023/09/09 03:00:28;;;;;;;;;;;;;;;18.63;86.87;101496.16;5026905;28;19918;-64
2023/09/09 03:02:53;;;;;;;;;;;;;;;18.65;86.61;101497.03;5026296;28;19917;-64
2023/09/09 03:05:18;;;;;;;;;;;;;;;18.68;86.88;101502.28;5026163;28;19920;-64
2023/09/09 03:07:48;;;;;;;;;;;;;;;18.68;86.43;101497.88;5025642;28;20115;-64
2023/09/09 03:10:13;;;;;;;;;;;;;;;18.66;86.31;101497.03;5021788;28;19913;-64
2023/09/09 03:12:38;;;;;;;;;;;;;;;18.64;86.38;101501.44;5026078;28;19940;-64
2023/09/09 03:15:05;;;;;;;;;;;;;;;18.63;86.56;101501.44;5025287;28;19920;-64
2023/09/09 03:17:31;;;;;;;;;;;;;;;18.57;86.16;101494.38;5024807;28;19968;-64
2023/09/09 03:19:56;;;;;;;;;;;;;;;18.48;86.90;101511.09;5025977;28;19910;-64
2023/09/09 03:22:21;;;;;;;;;;;;;;;18.39;86.85;101500.50;5021477;28;19984;-64
2023/09/09 03:24:47;;;;;;;;;;;;;;;18.36;87.03;101495.22;5006168;28;19952;-64
2023/09/09 03:27:12;;;;;;;;;;;;;;;18.31;87.50;101489.94;5021007;28;19917;-64
2023/09/09 03:29:38;;;;;;;;;;;;;;;18.22;87.34;101504.00;5025781;28;20060;-64
2023/09/09 03:32:03;;;;;;;;;;;;;;;18.10;87.40;101501.31;5025767;28;19952;-64
2023/09/09 03:34:28;;;;;;;;;;;;;;;17.98;89.20;101498.66;5025461;28;19968;-64
2023/09/09 03:36:54;;;;;;;;;;;;;;;17.87;88.84;101502.09;5023474;28;19917;-64
2023/09/09 03:39:19;;;;;;;;;;;;;;;17.72;89.56;101502.03;5025050;28;20079;-64
2023/09/09 03:41:44;;;;;;;;;;;;;;;17.54;90.28;101501.06;5024730;28;19914;-64
2023/09/09 03:44:09;;;;;;;;;;;;;;;17.40;91.06;101505.38;5031345;28;19917;-64
2023/09/09 03:46:34;;;;;;;;;;;;;;;17.24;92.24;101499.13;5025497;28;19910;-64
2023/09/09 03:48:59;;;;;;;;;;;;;;;17.16;92.85;101504.34;5025311;28;19916;-64
2023/09/09 03:51:24;;;;;;;;;;;;;;;17.25;92.98;101503.53;5025597;28;20100;-64
2023/09/09 03:53:50;;;;;;;;;;;;;;;17.34;94.28;101506.22;5024336;28;20071;-64
2023/09/09 03:56:16;;;;;;;;;;;;;;;17.46;94.13;101502.75;5025820;28;19925;-64
2023/09/09 03:58:41;;;;;;;;;;;;;;;17.55;94.20;101510.75;5025133;28;19916;-64
2023/09/09 04:01:07;;;;;;;;;;;;;;;17.64;92.37;101512.53;5025089;28;19909;-64
2023/09/09 04:03:34;;;;;;;;;;;;;;;17.72;91.89;101509.94;5025126;28;19916;-64
2023/09/09 04:06:01;;;;;;;;;;;;;;;17.77;92.45;101516.13;5024751;28;19914;-64
2023/09/09 04:08:28;;;;;;;;;;;;;;;17.82;91.74;101514.38;5024916;28;19997;-64
2023/09/09 04:10:53;;;;;;;;;;;;;;;17.77;92.64;101518.75;5024374;28;19980;-64
2023/09/09 04:13:18;;;;;;;;;;;;;;;17.73;93.11;101519.59;5025126;28;19941;-64
2023/09/09 04:15:43;;;;;;;;;;;;;;;17.72;93.44;101520.47;5024950;28;19910;-64
2023/09/09 04:18:09;;;;;;;;;;;;;;;17.72;92.95;101520.47;5024860;28;19917;-64
2023/09/09 04:20:34;;;;;;;;;;;;;;;17.69;92.82;101509.91;5024119;28;19914;-64
2023/09/09 04:22:59;;;;;;;;;;;;;;;17.71;92.81;101513.44;5024828;28;19955;-64
2023/09/09 04:25:24;;;;;;;;;;;;;;;17.67;92.08;101512.53;5023678;28;20167;-64
2023/09/09 04:27:49;;;;;;;;;;;;;;;17.62;91.86;101516.91;5024750;28;19971;-64
2023/09/09 04:30:15;;;;;;;;;;;;;;;17.56;91.97;101515.13;5016238;28;19980;-64
2023/09/09 04:32:40;;;;;;;;;;;;;;;17.54;92.07;101508.09;5024294;28;19921;-64
2023/09/09 04:35:05;;;;;;;;;;;;;;;17.51;91.79;101511.59;5005706;28;20067;-64
2023/09/09 04:37:32;;;;;;;;;;;;;;;17.50;92.07;101512.44;5024773;28;19949;-64
2023/09/09 04:39:57;;;;;;;;;;;;;;;17.45;91.64;101518.56;5020487;28;19920;-64
2023/09/09 04:42:22;;;;;;;;;;;;;;;17.35;92.08;101520.25;5024806;28;19976;-64
2023/09/09 04:44:48;;;;;;;;;;;;;;;17.32;92.17;101525.50;5026040;28;19957;-64
2023/09/09 04:47:13;;;;;;;;;;;;;;;17.33;92.36;101524.66;5024262;28;19914;-64
2023/09/09 04:49:38;;;;;;;;;;;;;;;17.36;91.85;101522.03;5023976;28;19921;-64
2023/09/09 04:52:03;;;;;;;;;;;;;;;17.37;92.35;101524.66;5022753;28;20067;-64
2023/09/09 04:54:29;;;;;;;;;;;;;;;17.37;92.31;101526.44;5023624;28;19922;-64
2023/09/09 04:56:54;;;;;;;;;;;;;;;17.38;91.97;101522.94;5024110;28;19909;-64
2023/09/09 04:59:20;;;;;;;;;;;;;;;17.38;92.06;101522.94;5023790;28;19914;-64
2023/09/09 05:01:45;;;;;;;;;;;;;;;17.33;92.06;101525.50;5024127;28;20147;-64
2023/09/09 05:04:10;;;;;;;;;;;;;;;17.30;91.90;101525.50;5023652;28;19934;-64
2023/09/09 05:06:35;;;;;;;;;;;;;;;17.29;91.85;101523.75;5023974;28;19910;-64
2023/09/09 05:09:00;;;;;;;;;;;;;;;17.26;91.28;101528.97;5023533;28;20274;-64
2023/09/09 05:11:26;;;;;;;;;;;;;;;17.24;91.41;101529.84;5023420;28;20166;-64
2023/09/09 05:13:51;;;;;;;;;;;;;;;17.24;91.53;101529.84;5023891;28;20160;-64
2023/09/09 05:16:16;;;;;;;;;;;;;;;17.19;91.55;101535.06;5023513;28;19948;-64
2023/09/09 05:18:41;;;;;;;;;;;;;;;17.12;91.60;101523.63;5024081;28;19976;-64
2023/09/09 05:21:06;;;;;;;;;;;;;;;17.11;91.86;101535.03;5021239;28;19913;-64
2023/09/09 05:23:32;;;;;;;;;;;;;;;17.13;91.12;101532.41;5023705;28;19916;-64
2023/09/09 05:25:57;;;;;;;;;;;;;;;17.14;91.68;101537.66;5022524;28;19937;-64
2023/09/09 05:28:22;;;;;;;;;;;;;;;17.14;91.94;101534.16;5023250;28;19956;-64
2023/09/09 05:30:47;;;;;;;;;;;;;;;17.14;91.10;101534.16;5023586;28;19980;-64
2023/09/09 05:33:12;;;;;;;;;;;;;;;17.13;92.23;101540.28;5023667;28;20291;-64
2023/09/09 05:35:38;;;;;;;;;;;;;;;17.14;92.24;101544.69;5022930;28;19913;-64
2023/09/09 05:38:03;;;;;;;;;;;;;;;17.14;92.62;101539.44;5010737;28;19971;-64
2023/09/09 05:40:28;;;;;;;;;;;;;;;17.13;92.63;101548.19;5022438;28;20152;-64
2023/09/09 05:42:53;;;;;;;;;;;;;;;17.11;93.00;101549.94;5023471;28;19914;-64
2023/09/09 05:45:18;;;;;;;;;;;;;;;17.12;93.17;101542.06;5023259;28;19929;-63
2023/09/09 05:47:45;;;;;;;;;;;;;;;17.13;93.63;101548.19;5023406;28;19985;-64
2023/09/09 05:50:11;;;;;;;;;;;;;;;17.13;94.12;101548.19;5023462;28;20076;-64
2023/09/09 05:52:36;;;;;;;;;;;;;;;17.16;93.77;101549.13;5021959;28;19932;-63
2023/09/09 05:55:02;;;;;;;;;;;;;;;17.20;94.58;101550.88;5022969;28;19913;-64
2023/09/09 05:57:27;;;;;;;;;;;;;;;17.22;94.68;101550.91;5023099;28;19909;-64
2023/09/09 05:59:52;;;;;;;;;;;;;;;17.21;93.08;101560.56;5022470;28;19983;-64
2023/09/09 06:02:17;;;;;;;;;;;;;;;17.15;93.86;101552.63;5023212;28;19980;-64
2023/09/09 06:04:43;;;;;;;;;;;;;;;17.11;95.17;101563.13;5005913;28;19909;-64
2023/09/09 06:07:08;;;;;;;;;;;;;;;17.10;95.13;101558.72;5023233;28;19951;-64
2023/09/09 06:09:33;;;;;;;;;;;;;;;17.09;93.91;101551.66;5021025;28;19969;-63
2023/09/09 06:11:58;;;;;;;;;;;;;;;17.04;95.75;101557.78;5023094;28;19913;-63
2023/09/09 06:14:23;;;;;;;;;;;;;;;17.07;96.61;101556.94;5023141;28;20009;-63
2023/09/09 06:16:49;;;;;;;;;;;;;;;17.14;96.61;101560.50;5022186;28;20131;-64
2023/09/09 06:19:14;;;;;;;;;;;;;;;17.15;95.05;101562.28;5022729;28;19914;-63
2023/09/09 06:21:39;;;;;;;;;;;;;;;17.10;94.41;101563.97;5023077;28;19910;-64
2023/09/09 06:24:06;;;;;;;;;;;;;;;17.09;96.52;101565.75;5022975;28;19929;-64
2023/09/09 06:26:33;;;;;;;;;;;;;;;17.10;95.65;101572.75;5004746;28;19910;-63
2023/09/09 06:28:59;;;;;;;;;;;;;;;17.10;95.40;101570.13;5023140;28;19921;-63
2023/09/09 06:31:24;;;;;;;;;;;;;;;17.10;96.46;101574.50;5022906;28;20134;-63
2023/09/09 06:33:49;;;;;;;;;;;;;;;17.06;96.87;101572.72;5021114;28;19924;-63
2023/09/09 06:36:16;;;;;;;;;;;;;;;17.07;97.19;101578.00;5009699;28;20090;-63
2023/09/09 06:38:41;;;;;;;;;;;;;;;17.08;96.52;101581.53;5022022;28;19948;-63
2023/09/09 06:41:07;;;;;;;;;;;;;;;17.09;97.33;101589.44;5018482;28;19913;-63
2023/09/09 06:43:32;;;;;;;;;;;;;;;17.14;97.03;101586.84;5022765;28;20143;-64
2023/09/09 06:45:59;;;;;;;;;;;;;;;17.16;97.93;101575.47;5022701;28;19914;-64
2023/09/09 06:48:24;;;;;;;;;;;;;;;17.13;98.12;101580.69;5013466;28;19926;-64
2023/09/09 06:51:05;;;;;;;;;;;;;;;17.16;98.88;101582.44;5020686;28;19914;-64
2023/09/09 06:53:37;;;;;;;;;;;;;;;17.22;99.10;101595.69;5021848;28;19910;-64
2023/09/09 06:56:05;;;;;;;;;;;;;;;17.30;99.70;101595.75;5024551;28;19920;-63
2023/09/09 06:58:30;;;;;;;;;;;;;;;17.38;98.96;101597.56;5022633;28;19910;-64
2023/09/09 07:00:55;;;;;;;;;;;;;;;17.41;98.39;101598.44;5022959;28;19916;-64
2023/09/09 07:03:21;;;;;;;;;;;;;;;17.39;98.92;101601.06;5022767;28;19959;-64
2023/09/09 07:05:46;;;;;;;;;;;;;;;17.42;99.80;101606.34;5020425;28;19948;-63
2023/09/09 07:08:11;;;;;;;;;;;;;;;17.44;99.00;101602.00;5022971;28;19913;-64
2023/09/09 07:10:37;;;;;;;;;;;;;;;17.47;100.00;101606.41;5023850;28;19910;-64
2023/09/09 07:13:03;;;;;;;;;;;;;;;17.48;100.00;101602.88;5026434;28;20233;-64
2023/09/09 07:15:28;;;;;;;;;;;;;;;17.55;100.00;101616.13;5025331;28;19941;-64
2023/09/09 07:17:54;;;;;;;;;;;;;;;17.65;100.00;101610.91;5025732;28;19920;-64
2023/09/09 07:20:19;;;;;;;;;;;;;;;17.73;100.00;101609.22;5025999;28;19964;-64
2023/09/09 07:22:45;;;;;;;;;;;;;;;17.78;100.00;101612.75;5020907;28;19952;-64
2023/09/09 07:25:10;;;;;;;;;;;;;;;17.86;100.00;101610.19;5014174;28;20108;-65
2023/09/09 07:27:35;;;;;;;;;;;;;;;17.92;100.00;101614.66;5021061;28;19930;-64
2023/09/09 07:30:01;;;;;;;;;;;;;;;17.94;100.00;101613.75;5018526;28;20136;-64
2023/09/09 07:32:26;;;;;;;;;;;;;;;17.97;100.00;101619.03;5021325;28;19913;-64
2023/09/09 07:34:51;;;;;;;;;;;;;;;18.04;100.00;101617.34;5007970;28;19957;-64
2023/09/09 07:37:17;;;;;;;;;;;;;;;18.10;100.00;101619.13;4998300;28;19913;-64
2023/09/09 07:39:46;;;;;;;;;;;;;;;18.15;100.00;101622.69;4997351;28;20147;-64
2023/09/09 07:42:14;;;;;;;;;;;;;;;18.19;100.00;101627.06;4999997;28;19957;-64
2023/09/09 07:49:46;;;;;;;;;;;;;;;18.32;100.00;101630.66;5180853;22;19933;-64
2023/09/09 07:52:11;;;;;;;;;;;;;;;18.36;100.00;101642.97;5037873;28;19934;-64
2023/09/09 07:54:36;;;;;;;;;;;;;;;18.41;100.00;101635.97;5041989;28;19913;-64
2023/09/09 07:57:02;;;;;;;;;;;;;;;18.48;100.00;101632.47;5042710;28;19917;-64
2023/09/09 07:59:28;;;;;;;;;;;;;;;18.56;100.00;101635.13;5041768;28;19913;-64
2023/09/09 08:01:53;;;;;;;;;;;;;;;18.60;100.00;101627.22;5041564;28;19913;-64
2023/09/09 08:04:18;;;;;;;;;;;;;;;18.66;100.00;101630.78;5045124;28;19920;-65
2023/09/09 08:06:45;;;;;;;;;;;;;;;18.72;100.00;101634.28;5043466;28;19996;-65
2023/09/09 08:09:13;;;;;;;;;;;;;;;18.80;100.00;101636.97;5038526;28;20122;-64
2023/09/09 08:11:39;;;;;;;;;;;;;;;18.89;100.00;101634.38;5040076;28;19920;-64
2023/09/09 08:14:07;;;;;;;;;;;;;;;18.99;100.00;101634.38;5038447;28;19976;-65
2023/09/09 08:16:32;;;;;;;;;;;;;;;19.03;100.00;101631.75;5043894;28;19933;-65
2023/09/09 08:18:57;;;;;;;;;;;;;;;19.07;100.00;101636.19;5043718;28;19920;-65
2023/09/09 08:21:23;;;;;;;;;;;;;;;19.16;100.00;101637.94;5039256;28;20189;-64
2023/09/09 08:23:48;;;;;;;;;;;;;;;19.24;100.00;101638.81;5039513;28;19951;-65
2023/09/09 08:26:13;;;;;;;;;;;;;;;19.35;100.00;101635.28;5041388;28;19945;-64
2023/09/09 08:28:40;;;;;;;;;;;;;;;19.42;100.00;101645.88;5041612;28;20164;-65
2023/09/09 08:31:05;;;;;;;;;;;;;;;19.57;100.00;101646.75;5038183;28;19925;-64
2023/09/09 08:33:30;;;;;;;;;;;;;;;19.73;100.00;101645.84;5043453;28;20244;-64
2023/09/09 08:35:59;;;;;;;;;;;;;;;19.91;100.00;101644.94;5023048;28;19913;-65
2023/09/09 08:38:24;;;;;;;;;;;;;;;20.02;100.00;101646.69;5041432;28;20131;-64
2023/09/09 08:41:04;;;;;;;;;;;;;;;20.19;100.00;101649.28;5035913;28;20178;-65
2023/09/09 08:43:48;;;;;;;;;;;;;;;20.41;100.00;101650.09;5048493;28;20212;-65
2023/09/09 08:46:15;;;;;;;;;;;;;;;20.62;100.00;101650.00;5044122;28;19916;-65
2023/09/09 08:48:42;;;;;;;;;;;;;;;20.79;100.00;101652.56;5052491;28;19936;-65
2023/09/09 08:51:08;;;;;;;;;;;;;;;20.99;100.00;101651.56;5044227;28;19955;-65
2023/09/09 08:53:33;;;;;;;;;;;;;;;21.19;100.00;101654.06;5049908;28;19935;-65
2023/09/09 08:55:59;;;;;;;;;;;;;;;21.37;100.00;101651.25;5030754;28;20082;-65
2023/09/09 08:58:25;;;;;;;;;;;;;;;21.61;100.00;101653.72;5043941;28;19912;-65
2023/09/09 09:00:50;;;;;;;;;;;;;;;21.78;99.66;101650.91;5032490;28;19933;-65
2023/09/09 09:03:17;;;;;;;;;;;;;;;21.94;99.14;101652.53;5043893;28;19947;-65
2023/09/09 09:05:43;;;;;;;;;;;;;;;22.15;99.22;101655.84;5050186;28;19913;-65
2023/09/09 09:08:09;;;;;;;;;;;;;;;22.34;98.73;101657.38;5051204;28;19944;-65
2023/09/09 09:10:35;;;;;;;;;;;;;;;22.55;98.22;101655.34;5025998;28;20044;-65
2023/09/09 09:13:00;;;;;;;;;;;;;;;22.77;97.93;101647.09;5043808;28;19933;-66
2023/09/09 09:15:26;;;;;;;;;;;;;;;22.99;97.25;101656.50;5043514;28;19916;-66
2023/09/09 09:17:52;;;;;;;;;;;;;;;23.17;96.36;101651.84;5043911;28;19909;-66
2023/09/09 09:20:28;;;;;;;;;;;;;;;23.35;94.90;101661.31;5025216;28;19917;-66
2023/09/09 09:23:20;;;;;;;;;;;;;;;23.50;94.00;101661.03;5040419;28;20165;-66
2023/09/09 09:25:46;;;;;;;;;;;;;;;23.61;93.78;101658.19;5036036;28;20127;-66
2023/09/09 09:28:15;;;;;;;;;;;;;;;23.74;91.98;101662.38;5042217;28;21229;-66
2023/09/09 09:30:40;;;;;;;;;;;;;;;23.87;91.96;101662.16;5041318;28;19916;-66
2023/09/09 09:33:05;;;;;;;;;;;;;;;23.97;92.30;101655.78;5039542;28;19913;-66
2023/09/09 09:35:31;;;;;;;;;;;;;;;24.17;90.55;101658.03;5039065;28;20326;-66
2023/09/09 09:37:57;;;;;;;;;;;;;;;24.34;91.17;101652.38;5037819;28;19913;-66
2023/09/09 09:40:23;;;;;;;;;;;;;;;24.54;90.66;101649.28;5036075;28;19913;-66
2023/09/09 09:42:48;;;;;;;;;;;;;;;24.65;89.24;101651.72;5042425;28;19920;-66
2023/09/09 09:45:13;;;;;;;;;;;;;;;24.82;89.06;101649.59;5041193;28;20205;-66
2023/09/09 09:47:43;;;;;;;;;;;;;;;24.95;87.56;101654.63;5029465;28;19929;-66
2023/09/09 09:50:15;;;;;;;;;;;;;;;25.05;87.57;101649.94;5037662;28;19971;-66
2023/09/09 09:52:45;;;;;;;;;;;;;;;25.22;86.98;101650.41;5037412;28;19975;-66
2023/09/09 09:55:16;;;;;;;;;;;;;;;25.36;83.94;101649.22;5041476;28;19913;-66
2023/09/09 09:57:41;;;;;;;;;;;;;;;25.47;83.95;101649.81;5034620;28;20166;-66
2023/09/09 10:00:07;;;;;;;;;;;;;;;25.58;83.61;101654.84;5039610;28;19967;-66
2023/09/09 10:02:33;;;;;;;;;;;;;;;25.74;82.35;101648.22;5037229;28;19935;-66
2023/09/09 10:05:01;;;;;;;;;;;;;;;25.89;81.64;101649.56;5040571;28;20070;-66
2023/09/09 10:07:26;;;;;;;;;;;;;;;26.00;81.46;101649.31;5043689;28;19937;-66
2023/09/09 10:10:07;;;;;;;;;;;;;;;26.06;79.55;101645.59;5039451;28;19913;-66
2023/09/09 10:12:32;;;;;;;;;;;;;;;26.24;80.13;101644.19;5035081;28;19929;-66
2023/09/09 10:14:59;;;;;;;;;;;;;;;26.36;78.95;101650.03;5040211;28;19983;-66
2023/09/09 10:17:25;;;;;;;;;;;;;;;26.51;78.77;101653.19;5036624;28;19920;-66
2023/09/09 10:19:53;;;;;;;;;;;;;;;26.59;77.23;101645.78;5020639;28;19929;-66
2023/09/09 10:22:19;;;;;;;;;;;;;;;26.72;75.50;101640.97;5039827;28;19917;-66
2023/09/09 10:24:46;;;;;;;;;;;;;;;26.83;75.36;101644.19;5040880;28;20070;-66
2023/09/09 10:27:11;;;;;;;;;;;;;;;26.94;75.52;101641.19;5041996;28;19965;-64
2023/09/09 10:29:37;;;;;;;;;;;;;;;27.07;74.98;101641.66;5037441;28;19913;-64
2023/09/09 10:32:03;;;;;;;;;;;;;;;27.19;74.30;101646.59;5040145;28;19913;-64
2023/09/09 10:34:29;;;;;;;;;;;;;;;27.13;72.85;101637.88;5043557;28;19913;-64
2023/09/09 10:36:54;;;;;;;;;;;;;;;27.14;72.26;101643.22;5042511;28;19925;-65
2023/09/09 10:39:21;;;;;;;;;;;;;;;27.17;72.45;101637.75;5042100;28;20094;-64
2023/09/09 10:41:47;;;;;;;;;;;;;;;27.29;72.25;101638.22;5042039;28;19920;-64
2023/09/09 10:44:12;;;;;;;;;;;;;;;27.46;69.78;101640.38;5036780;28;19913;-64
2023/09/09 10:46:37;;;;;;;;;;;;;;;27.56;65.83;101640.00;5042115;28;19987;-64
2023/09/09 10:49:03;;;;;;;;;;;;;;;27.65;68.37;101633.47;5042690;28;20231;-64
2023/09/09 10:51:29;;;;;;;;;;;;;;;27.77;66.90;101640.19;5025161;28;19913;-64
2023/09/09 10:54:10;;;;;;;;;;;;;;;27.94;68.05;101640.44;5026482;28;20152;-65
2023/09/09 10:56:43;;;;;;;;;;;;;;;28.02;68.77;101637.50;5027329;28;19921;-65
2023/09/09 10:59:19;;;;;;;;;;;;;;;27.99;66.57;101637.63;5025131;28;20170;-65
2023/09/09 11:01:44;;;;;;;;;;;;;;;27.93;65.22;101635.13;5028329;28;19933;-65
2023/09/09 11:04:17;;;;;;;;;;;;;;;28.00;65.89;101638.50;5023884;28;20040;-65
2023/09/09 11:06:57;;;;;;;;;;;;;;;28.17;67.03;101641.44;5026676;28;19921;-65
2023/09/09 11:09:26;;;;;;;;;;;;;;;28.37;66.93;101646.00;5042529;28;20207;-65
2023/09/09 11:11:54;;;;;;;;;;;;;;;28.49;67.20;101633.06;5024726;28;20195;-65
2023/09/09 11:14:20;;;;;;;;;;;;;;;28.51;63.71;101632.06;5024544;28;20020;-65
2023/09/09 11:16:48;;;;;;;;;;;;;;;28.38;64.56;101634.34;5025937;28;20204;-65
2023/09/09 11:19:14;;;;;;;;;;;;;;;28.39;64.64;101628.06;5042383;28;19913;-65
2023/09/09 11:21:40;;;;;;;;;;;;;;;28.44;63.76;101626.06;5030192;28;19960;-65
2023/09/09 11:24:06;;;;;;;;;;;;;;;28.35;59.58;101634.47;5033179;28;19952;-65
2023/09/09 11:26:31;;;;;;;;;;;;;;;28.31;61.64;101630.16;5025833;28;19940;-65
2023/09/09 11:28:57;;;;;;;;;;;;;;;28.39;63.44;101627.22;5027000;28;19956;-65
2023/09/09 11:31:22;;;;;;;;;;;;;;;28.53;63.06;101619.50;5023725;28;19918;-65
2023/09/09 11:33:48;;;;;;;;;;;;;;;28.74;62.24;101622.28;5035539;28;19913;-65
2023/09/09 11:36:17;;;;;;;;;;;;;;;28.93;62.07;101627.75;5040655;28;20059;-66
2023/09/09 11:38:42;;;;;;;;;;;;;;;29.11;62.02;101634.16;5030822;28;19955;-68
2023/09/09 11:41:07;;;;;;;;;;;;;;;29.23;61.58;101627.44;5021706;28;19913;-69
2023/09/09 11:43:32;;;;;;;;;;;;;;;29.28;60.79;101625.44;5033949;28;19980;-67
2023/09/09 11:45:58;;;;;;;;;;;;;;;29.41;60.55;101632.03;5030497;28;19945;-68
2023/09/09 11:48:23;;;;;;;;;;;;;;;29.54;58.12;101631.50;5031969;28;19952;-69
2023/09/09 11:50:49;;;;;;;;;;;;;;;29.49;56.13;101635.25;5018669;28;19914;-68
2023/09/09 11:53:14;;;;;;;;;;;;;;;29.56;59.02;101629.59;5032221;28;19914;-67
2023/09/09 11:55:40;;;;;;;;;;;;;;;29.74;57.47;101633.31;5025542;28;20139;-67
2023/09/09 11:58:05;;;;;;;;;;;;;;;29.71;55.59;101628.06;5011910;28;20038;-67
2023/09/09 12:00:31;;;;;;;;;;;;;;;29.59;55.13;101634.84;5031226;28;20388;-68
2023/09/09 12:02:56;;;;;;;;;;;;;;;29.61;55.12;101628.47;5007876;28;19976;-67
2023/09/09 12:05:27;;;;;;;;;;;;;;;29.52;55.91;101633.34;5025273;28;19977;-67
2023/09/09 12:07:52;;;;;;;;;;;;;;;29.47;49.21;101628.19;5026404;28;19925;-67
2023/09/09 12:10:17;;;;;;;;;;;;;;;29.21;56.06;101630.16;5042295;28;19920;-67
2023/09/09 12:12:44;;;;;;;;;;;;;;;29.39;55.78;101628.53;5028774;28;19913;-67
2023/09/09 12:15:10;;;;;;;;;;;;;;;29.53;55.17;101630.59;5024460;28;19914;-67
2023/09/09 12:17:37;;;;;;;;;;;;;;;29.76;55.07;101628.72;5036623;28;20165;-67
2023/09/09 12:20:06;;;;;;;;;;;;;;;29.98;55.07;101626.84;5026182;28;19913;-67
2023/09/09 12:22:35;;;;;;;;;;;;;;;30.17;55.10;101628.69;5023131;28;19920;-66
2023/09/09 12:25:01;;;;;;;;;;;;;;;30.36;52.03;101626.03;5028043;28;19995;-66
2023/09/09 12:27:42;;;;;;;;;;;;;;;30.51;51.51;101621.75;5026401;28;20106;-66
2023/09/09 12:30:27;;;;;;;;;;;;;;;30.71;50.48;101620.78;5007169;28;19917;-66
2023/09/09 12:32:53;;;;;;;;;;;;;;;30.68;53.91;101618.25;5024839;28;19914;-67
2023/09/09 12:35:18;;;;;;;;;;;;;;;30.75;52.85;101621.50;5029277;28;19952;-67